Dalmatia G — ICOA — position and weather

sailwx.info

Track history (hours):
 
Tides and Currents Weather Stations Pressure Air Temp Water Temp Dewpoint Dewpoint Depression Visibility Wind Speed Wind Dir Waves Ship Positions

Dalmatia G

Last reported at 2018-Jun-18 06:36 UTC. Time now 2018-Jun-25 09:29 UTC.
Position N 09°28' W 079°55'.

Length 190 m; draft 11.8 m.

Type: Ship. MMSI: 247302500.

Date/timePositionNaut miles runAvg speedWind from/ knotsBaromVisibWave heightAir tempDewpointWater temp
2018-Jun-18 06:36N 09°28' W 079°55'1 9.9
2018-Jun-18 06:30N 09°27' W 079°55'4 9.1
2018-Jun-18 06:00N 09°23' W 079°55'1 1.4
2018-Jun-18 05:28N 09°22' W 079°56'0 0.0
2018-Jun-18 05:01N 09°22' W 079°56'0 0.1
2018-Jun-18 04:31N 09°22' W 079°56'0 0.1
2018-Jun-18 03:58N 09°22' W 079°56'0 0.0
2018-Jun-18 03:28N 09°22' W 079°56'0 0.0
2018-Jun-18 02:58N 09°22' W 079°56'0 0.0
2018-Jun-18 02:28N 09°22' W 079°56'0 0.1
2018-Jun-18 01:58N 09°22' W 079°56'0 0.0
2018-Jun-18 01:28N 09°22' W 079°56'0 0.0
2018-Jun-18 01:01N 09°22' W 079°56'0 0.0
2018-Jun-18 00:31N 09°22' W 079°56'0 0.0
2018-Jun-18 00:01N 09°22' W 079°56'0 0.0
2018-Jun-17 23:28N 09°22' W 079°56'0 0.0
2018-Jun-17 22:58N 09°22' W 079°56'0 0.1
2018-Jun-17 22:31N 09°22' W 079°56'0 0.0
2018-Jun-17 21:58N 09°22' W 079°56'0 0.1
2018-Jun-17 21:31N 09°22' W 079°56'0 0.0
2018-Jun-17 20:58N 09°22' W 079°56'0 0.0
2018-Jun-17 20:28N 09°22' W 079°56'0 0.0
2018-Jun-17 20:00N 09°22' W 079°56'1 2.9
2018-Jun-17 19:30N 09°21' W 079°55'4 6.9
2018-Jun-17 18:55N 09°17' W 079°55'0 0.6
2018-Jun-17 18:24N 09°16' W 079°55'0 0.3
2018-Jun-17 17:40N 09°16' W 079°55'0 0.6
2018-Jun-17 17:30N 09°16' W 079°55'0 0.3
2018-Jun-17 17:00N 09°16' W 079°55'  
Track history (hours):
 
Tides and Currents Weather Stations Pressure Air Temp Water Temp Dewpoint Dewpoint Depression Visibility Wind Speed Wind Dir Waves Ship Positions

Dalmatia G

Last reported at 2018-Jun-18 06:36 UTC. Time now 2018-Jun-25 09:29 UTC.
Position N 09°28' W 079°55'.

Length 190 m; draft 11.8 m.

Type: Ship. MMSI: 247302500.

Date/timePositionNaut miles runAvg speedWind from/ knotsBaromVisibWave heightAir tempDewpointWater temp
2018-Jun-18 06:36N 09°28' W 079°55'1 9.9
2018-Jun-18 06:30N 09°27' W 079°55'4 9.1
2018-Jun-18 06:00N 09°23' W 079°55'1 1.4
2018-Jun-18 05:28N 09°22' W 079°56'0 0.0
2018-Jun-18 05:01N 09°22' W 079°56'0 0.1
2018-Jun-18 04:31N 09°22' W 079°56'0 0.1
2018-Jun-18 03:58N 09°22' W 079°56'0 0.0
2018-Jun-18 03:28N 09°22' W 079°56'0 0.0
2018-Jun-18 02:58N 09°22' W 079°56'0 0.0
2018-Jun-18 02:28N 09°22' W 079°56'0 0.1
2018-Jun-18 01:58N 09°22' W 079°56'0 0.0
2018-Jun-18 01:28N 09°22' W 079°56'0 0.0
2018-Jun-18 01:01N 09°22' W 079°56'0 0.0
2018-Jun-18 00:31N 09°22' W 079°56'0 0.0
2018-Jun-18 00:01N 09°22' W 079°56'0 0.0
2018-Jun-17 23:28N 09°22' W 079°56'0 0.0
2018-Jun-17 22:58N 09°22' W 079°56'0 0.1
2018-Jun-17 22:31N 09°22' W 079°56'0 0.0
2018-Jun-17 21:58N 09°22' W 079°56'0 0.1
2018-Jun-17 21:31N 09°22' W 079°56'0 0.0
2018-Jun-17 20:58N 09°22' W 079°56'0 0.0
2018-Jun-17 20:28N 09°22' W 079°56'0 0.0
2018-Jun-17 20:00N 09°22' W 079°56'1 2.9
2018-Jun-17 19:30N 09°21' W 079°55'4 6.9
2018-Jun-17 18:55N 09°17' W 079°55'0 0.6
2018-Jun-17 18:24N 09°16' W 079°55'0 0.3
2018-Jun-17 17:40N 09°16' W 079°55'0 0.6
2018-Jun-17 17:30N 09°16' W 079°55'0 0.3
2018-Jun-17 17:00N 09°16' W 079°55'  

Dump ship's entire track history